createdAt,value
2019-03-29T00:02:41.326Z,57.50
2019-03-29T00:05:31.094Z,58.90
2019-03-29T00:08:20.345Z,57.50
2019-03-29T00:10:59.519Z,57.90
2019-03-29T00:13:47.927Z,59.70
2019-03-29T00:16:34.764Z,57.80
2019-03-29T00:19:19.279Z,58.20
2019-03-29T00:22:01.064Z,58.10
2019-03-29T00:24:44.234Z,57.10
2019-03-29T00:27:32.684Z,57.90
2019-03-29T00:30:25.902Z,58.20
2019-03-29T00:33:14.395Z,57.80
2019-03-29T00:36:10.620Z,58.10
2019-03-29T00:39:00.367Z,59.90
2019-03-29T00:41:42.272Z,58.20
2019-03-29T00:44:45.142Z,58.50
2019-03-29T00:47:25.735Z,58.70
2019-03-29T00:50:07.735Z,59.60
2019-03-29T00:52:51.957Z,59.20
2019-03-29T00:55:42.451Z,58.60
2019-03-29T00:58:22.856Z,57.70
2019-03-29T01:01:06.158Z,58.20
2019-03-29T01:03:50.980Z,56.90
2019-03-29T01:06:36.275Z,59.50
2019-03-29T01:09:24.830Z,58.80
2019-03-29T01:12:08.895Z,58.40
2019-03-29T01:14:55.004Z,57.40
2019-03-29T01:17:38.482Z,57.50
2019-03-29T01:20:25.363Z,57.40
2019-03-29T01:23:19.167Z,57.40
2019-03-29T01:26:05.774Z,58.20
2019-03-29T01:28:58.263Z,57.40
2019-03-29T01:31:40.217Z,58.40
2019-03-29T01:34:26.325Z,58.50
2019-03-29T01:37:09.034Z,58.10
2019-03-29T01:39:52.087Z,59.40
2019-03-29T01:42:39.667Z,59.70
2019-03-29T01:45:21.121Z,59.00
2019-03-29T01:48:01.120Z,56.50
2019-03-29T01:50:44.919Z,57.10
2019-03-29T01:53:34.400Z,57.40
2019-03-29T01:56:21.331Z,58.00
2019-03-29T01:59:17.289Z,58.40
2019-03-29T02:02:00.542Z,57.40
2019-03-29T02:04:41.819Z,57.40
2019-03-29T02:07:27.349Z,57.30
2019-03-29T02:10:23.542Z,57.40
2019-03-29T02:13:29.710Z,57.40
2019-03-29T02:16:10.450Z,55.60
2019-03-29T02:18:57.134Z,56.10
2019-03-29T02:21:48.452Z,55.70
2019-03-29T02:24:45.915Z,55.30
2019-03-29T02:27:31.231Z,55.10
2019-03-29T02:30:09.139Z,55.40
2019-03-29T02:32:47.746Z,55.50
2019-03-29T02:35:29.256Z,55.90
2019-03-29T02:38:13.377Z,56.40
2019-03-29T02:40:58.969Z,56.80
2019-03-29T02:43:41.798Z,55.40
2019-03-29T02:46:30.544Z,55.40
2019-03-29T02:49:13.189Z,56.10
2019-03-29T02:51:59.985Z,56.00
2019-03-29T02:54:43.203Z,54.90
2019-03-29T02:57:28.167Z,56.70
2019-03-29T03:00:08.878Z,56.60
2019-03-29T03:02:54.055Z,55.30
2019-03-29T03:05:35.999Z,54.60
2019-03-29T03:08:21.779Z,55.00
2019-03-29T03:11:12.754Z,55.10
2019-03-29T03:13:53.990Z,54.50
2019-03-29T03:16:36.514Z,54.50
2019-03-29T03:19:21.649Z,54.50
2019-03-29T03:22:08.266Z,54.60
2019-03-29T03:24:50.838Z,54.50
2019-03-29T03:27:40.582Z,54.80
2019-03-29T03:30:23.037Z,55.30
2019-03-29T03:33:03.221Z,55.20
2019-03-29T03:35:48.646Z,54.30
2019-03-29T03:38:29.212Z,53.50
2019-03-29T03:41:20.011Z,53.80
2019-03-29T03:44:04.123Z,53.30
2019-03-29T03:46:49.369Z,53.20
2019-03-29T03:49:36.483Z,52.40
2019-03-29T03:52:23.349Z,52.60
2019-03-29T03:55:05.000Z,53.50
2019-03-29T03:58:00.201Z,54.90
2019-03-29T04:01:12.339Z,53.90
2019-03-29T04:03:52.428Z,53.40
2019-03-29T04:06:55.862Z,52.20
2019-03-29T04:09:51.628Z,52.00
2019-03-29T04:12:58.045Z,52.30
2019-03-29T04:15:41.262Z,51.60
2019-03-29T04:18:31.686Z,52.20
2019-03-29T04:21:14.033Z,51.90
2019-03-29T04:24:07.505Z,52.10
2019-03-29T04:26:52.709Z,52.20
2019-03-29T04:29:36.297Z,52.10
2019-03-29T04:32:21.114Z,51.50
2019-03-29T04:35:09.586Z,52.10
2019-03-29T04:38:16.572Z,52.20
2019-03-29T04:41:06.912Z,51.20
2019-03-29T04:44:32.438Z,51.60
2019-03-29T04:47:30.112Z,51.00
2019-03-29T04:50:13.241Z,51.00
2019-03-29T04:52:55.813Z,51.80
2019-03-29T04:55:39.445Z,51.80
2019-03-29T04:58:24.314Z,51.30
2019-03-29T05:01:59.863Z,51.20
2019-03-29T05:05:06.196Z,51.30
2019-03-29T05:07:52.664Z,50.70
2019-03-29T05:10:42.368Z,50.90
2019-03-29T05:13:47.229Z,50.30
2019-03-29T05:16:41.602Z,50.90
2019-03-29T05:19:31.828Z,50.10
2019-03-29T05:22:15.420Z,49.50
2019-03-29T05:25:06.915Z,50.10
2019-03-29T05:27:56.475Z,50.10
2019-03-29T05:30:47.910Z,50.80
2019-03-29T05:33:31.400Z,50.30
2019-03-29T05:36:32.456Z,50.30
2019-03-29T05:39:18.152Z,50.20
2019-03-29T05:42:20.030Z,50.30
2019-03-29T05:45:25.312Z,49.30
2019-03-29T05:48:13.739Z,48.80
2019-03-29T05:50:58.015Z,48.80
2019-03-29T05:53:51.153Z,48.50
2019-03-29T05:56:39.719Z,48.20
2019-03-29T05:59:29.236Z,48.40
2019-03-29T06:02:29.939Z,48.00
2019-03-29T06:05:21.280Z,48.40
2019-03-29T06:08:12.439Z,48.70
2019-03-29T06:10:54.350Z,47.60
2019-03-29T06:13:42.434Z,48.20
2019-03-29T06:16:56.652Z,47.60
2019-03-29T06:19:38.773Z,47.90
2019-03-29T06:22:23.958Z,47.60
2019-03-29T06:25:24.725Z,48.00
2019-03-29T06:28:05.732Z,47.50
2019-03-29T06:31:05.111Z,47.30
2019-03-29T06:33:49.597Z,47.10
2019-03-29T06:36:44.696Z,47.40
2019-03-29T06:39:33.249Z,47.20
2019-03-29T06:42:21.919Z,47.10
2019-03-29T06:45:08.474Z,46.90
2019-03-29T06:48:02.331Z,47.00
2019-03-29T06:50:51.798Z,46.30
2019-03-29T06:53:52.628Z,46.20
2019-03-29T06:56:56.065Z,46.10
2019-03-29T06:59:49.818Z,45.90
2019-03-29T07:03:04.538Z,45.80
2019-03-29T07:05:49.145Z,45.80
2019-03-29T07:08:52.995Z,45.60
2019-03-29T07:11:39.769Z,45.70
2019-03-29T07:14:32.717Z,46.00
2019-03-29T07:17:26.151Z,45.90
2019-03-29T07:20:19.111Z,45.20
2019-03-29T07:23:19.067Z,45.20
2019-03-29T07:26:06.721Z,45.00
2019-03-29T07:28:54.185Z,44.80
2019-03-29T07:31:43.434Z,44.60
2019-03-29T07:34:42.288Z,44.80
2019-03-29T07:37:32.668Z,44.50
2019-03-29T07:40:28.696Z,44.00
2019-03-29T07:43:23.990Z,44.80
2019-03-29T07:46:09.181Z,44.10
2019-03-29T07:49:26.240Z,44.10
2019-03-29T07:52:28.317Z,44.40
2019-03-29T07:55:14.650Z,44.30
2019-03-29T07:57:57.882Z,44.20
2019-03-29T08:01:32.406Z,44.30
2019-03-29T08:04:21.738Z,43.90
2019-03-29T08:07:27.529Z,43.90
2019-03-29T08:10:23.622Z,44.00
2019-03-29T08:13:09.812Z,43.60
2019-03-29T08:16:06.583Z,43.40
2019-03-29T08:18:49.490Z,43.20
2019-03-29T08:21:57.705Z,43.20
2019-03-29T08:24:46.169Z,42.90
2019-03-29T08:27:41.330Z,43.00
2019-03-29T08:30:29.887Z,43.70
2019-03-29T08:33:12.514Z,43.10
2019-03-29T08:35:59.344Z,43.10
2019-03-29T08:38:46.628Z,42.80
2019-03-29T08:41:27.463Z,42.90
2019-03-29T08:44:13.051Z,43.10
2019-03-29T08:46:57.893Z,43.00
2019-03-29T08:49:59.782Z,42.40
2019-03-29T08:52:45.927Z,42.20
2019-03-29T08:55:27.891Z,42.20
2019-03-29T08:58:13.239Z,42.50
2019-03-29T09:01:19.594Z,42.50
2019-03-29T09:04:06.448Z,42.70
2019-03-29T09:06:54.423Z,42.80
2019-03-29T09:09:36.480Z,42.80
2019-03-29T09:12:32.358Z,43.50
2019-03-29T09:15:22.369Z,44.40
2019-03-29T09:18:15.211Z,43.70
2019-03-29T09:21:09.115Z,44.30
2019-03-29T09:23:58.667Z,44.40
2019-03-29T09:26:41.646Z,44.20
2019-03-29T09:29:25.548Z,45.20
2019-03-29T09:32:19.862Z,43.60
2019-03-29T09:35:07.950Z,43.50
2019-03-29T09:37:52.479Z,43.30
2019-03-29T09:40:39.620Z,43.00
2019-03-29T09:43:29.867Z,43.20
2019-03-29T09:46:13.272Z,42.80
2019-03-29T09:49:22.774Z,44.10
2019-03-29T09:52:02.326Z,43.40
2019-03-29T09:54:46.295Z,43.10
2019-03-29T09:57:37.215Z,43.50
2019-03-29T10:00:22.997Z,43.40
2019-03-29T10:03:16.238Z,43.40
2019-03-29T10:06:18.892Z,43.20
2019-03-29T10:09:00.543Z,44.00
2019-03-29T10:11:58.416Z,45.00
2019-03-29T10:14:42.207Z,43.80
2019-03-29T10:17:24.981Z,44.00
2019-03-29T10:20:16.891Z,44.00
2019-03-29T10:23:40.247Z,44.10
2019-03-29T10:26:32.058Z,44.00
2019-03-29T10:29:36.785Z,43.70
2019-03-29T10:32:25.142Z,44.20
2019-03-29T10:35:19.000Z,45.10
2019-03-29T10:38:09.170Z,45.20
2019-03-29T10:41:04.701Z,45.80
2019-03-29T10:43:51.183Z,45.90
2019-03-29T10:46:39.274Z,46.00
2019-03-29T10:49:28.348Z,46.00
2019-03-29T10:52:18.265Z,45.40
2019-03-29T10:55:09.035Z,46.20
2019-03-29T10:58:09.833Z,47.20
2019-03-29T11:01:14.595Z,47.80
2019-03-29T11:04:09.807Z,48.40
2019-03-29T11:16:27.651Z,46.30
2019-03-29T11:19:21.213Z,47.70
2019-03-29T11:22:03.028Z,47.80
2019-03-29T11:27:53.759Z,47.70
2019-03-29T11:30:42.758Z,48.60
2019-03-29T11:33:33.950Z,48.60
2019-03-29T11:36:17.364Z,48.30
2019-03-29T11:39:06.219Z,47.80
2019-03-29T11:45:35.676Z,47.70
2019-03-29T11:48:19.974Z,47.70
2019-03-29T11:51:19.756Z,49.70
2019-03-29T11:54:04.462Z,48.30
2019-03-29T11:56:49.217Z,48.30
2019-03-29T11:59:33.170Z,48.10
2019-03-29T12:02:31.468Z,48.50
2019-03-29T12:05:30.861Z,48.00
2019-03-29T12:08:26.109Z,49.20
2019-03-29T12:11:26.135Z,49.80
2019-03-29T12:14:36.215Z,49.60
2019-03-29T12:17:56.224Z,50.20
2019-03-29T12:20:56.497Z,49.70
2019-03-29T12:23:46.030Z,49.70
2019-03-29T12:26:38.569Z,49.50
2019-03-29T12:29:46.543Z,49.70
2019-03-29T12:32:50.224Z,50.70
2019-03-29T12:36:17.388Z,50.40
2019-03-29T12:39:07.782Z,50.50
2019-03-29T12:45:30.163Z,51.10
2019-03-29T12:48:18.464Z,51.30
2019-03-29T12:51:34.538Z,51.30
2019-03-29T12:54:58.094Z,52.10
2019-03-29T12:57:44.810Z,52.70
2019-03-29T13:04:28.739Z,52.10
2019-03-29T13:07:53.400Z,52.30
2019-03-29T13:10:42.363Z,52.20
2019-03-29T13:13:42.451Z,53.10
2019-03-29T13:17:12.376Z,53.40
2019-03-29T13:20:26.642Z,54.50
2019-03-29T13:23:26.803Z,55.60
2019-03-29T13:26:36.493Z,55.10
2019-03-29T13:29:35.825Z,54.20
2019-03-29T13:36:15.881Z,53.50
2019-03-29T13:39:01.644Z,53.20
2019-03-29T13:42:06.119Z,53.30
2019-03-29T13:48:44.245Z,52.70
2019-03-29T13:52:03.715Z,53.10
2019-03-29T13:55:37.305Z,53.00
2019-03-29T13:58:43.222Z,53.00
2019-03-29T14:02:02.836Z,52.90
2019-03-29T14:04:51.106Z,53.30
2019-03-29T14:08:05.826Z,53.00
2019-03-29T14:11:03.576Z,52.90
2019-03-29T14:14:11.218Z,53.20
2019-03-29T14:17:36.871Z,52.80
2019-03-29T14:21:15.871Z,53.00
2019-03-29T14:24:35.418Z,53.40
2019-03-29T14:27:47.235Z,53.60
2019-03-29T14:31:20.989Z,53.80
2019-03-29T14:34:58.569Z,54.10
2019-03-29T14:38:17.830Z,54.30
2019-03-29T14:41:46.053Z,53.90
2019-03-29T14:44:52.598Z,54.10
2019-03-29T14:47:43.963Z,54.60
2019-03-29T14:50:53.848Z,54.70
2019-03-29T14:57:47.022Z,55.00
2019-03-29T15:00:57.317Z,55.30
2019-03-29T15:04:22.359Z,55.60
2019-03-29T15:07:38.342Z,55.30
2019-03-29T15:10:39.278Z,55.30
2019-03-29T15:14:06.518Z,55.30
2019-03-29T15:17:24.216Z,55.10
2019-03-29T15:20:52.686Z,55.50
2019-03-29T15:24:08.569Z,55.80
2019-03-29T15:27:25.082Z,55.90
2019-03-29T15:30:24.516Z,56.00
2019-03-29T15:33:51.552Z,56.10
2019-03-29T15:40:06.233Z,56.40
2019-03-29T15:43:06.186Z,56.40
2019-03-29T15:46:03.502Z,56.40
2019-03-29T15:49:19.754Z,56.50
2019-03-29T15:55:48.633Z,56.70
2019-03-29T15:58:52.878Z,56.60
2019-03-29T16:02:00.072Z,56.60
2019-03-29T16:05:22.359Z,56.80
2019-03-29T16:08:30.418Z,56.90
2019-03-29T16:11:23.869Z,56.60
2019-03-29T16:14:13.840Z,57.00
2019-03-29T16:17:21.744Z,57.00
2019-03-29T16:20:14.403Z,56.50
2019-03-29T16:23:08.102Z,56.60
2019-03-29T16:26:06.536Z,56.70
2019-03-29T16:29:10.352Z,56.80
2019-03-29T16:32:21.517Z,56.90
2019-03-29T16:35:22.643Z,57.10
2019-03-29T16:38:35.080Z,57.10
2019-03-29T16:41:44.750Z,57.20
2019-03-29T16:44:35.994Z,57.20
2019-03-29T16:47:56.483Z,57.40
2019-03-29T16:51:05.374Z,57.50
2019-03-29T16:54:09.396Z,57.50
2019-03-29T16:56:54.392Z,57.50
2019-03-29T17:00:00.783Z,57.50
2019-03-29T17:03:06.726Z,57.50
2019-03-29T17:06:36.761Z,57.70
2019-03-29T17:09:22.048Z,57.60
2019-03-29T17:12:12.411Z,57.90
2019-03-29T17:14:58.046Z,58.20
2019-03-29T17:17:45.121Z,58.20
2019-03-29T17:20:34.583Z,58.20
2019-03-29T17:23:35.426Z,58.30
2019-03-29T17:26:28.024Z,58.20
2019-03-29T17:29:14.537Z,57.60
2019-03-29T17:31:59.324Z,57.60
2019-03-29T17:34:54.434Z,57.70
2019-03-29T17:37:37.056Z,57.90
2019-03-29T17:40:19.308Z,58.00
2019-03-29T17:43:02.393Z,58.10
2019-03-29T17:45:41.743Z,58.20
2019-03-29T17:48:23.922Z,58.40
2019-03-29T17:51:17.512Z,58.50
2019-03-29T17:53:55.678Z,58.70
2019-03-29T17:56:37.040Z,58.40
2019-03-29T17:59:25.588Z,58.50
2019-03-29T18:02:14.762Z,58.40
2019-03-29T18:05:06.885Z,57.90
2019-03-29T18:07:48.695Z,58.10
2019-03-29T18:10:29.696Z,58.40
2019-03-29T18:13:25.202Z,58.50
2019-03-29T18:16:11.386Z,58.70
2019-03-29T18:18:52.702Z,58.90
2019-03-29T18:21:40.348Z,59.00
2019-03-29T18:24:21.812Z,58.70
2019-03-29T18:27:05.109Z,58.80
2019-03-29T18:32:42.547Z,58.90
2019-03-29T18:35:25.501Z,59.10
2019-03-29T18:38:24.876Z,58.70
2019-03-29T18:41:09.572Z,58.70
2019-03-29T18:43:52.357Z,58.90
2019-03-29T18:46:44.552Z,59.10
2019-03-29T18:49:17.901Z,59.20
2019-03-29T18:51:58.085Z,59.50
2019-03-29T18:54:49.534Z,59.60
2019-03-29T18:57:32.345Z,59.70
2019-03-29T19:00:21.785Z,59.80
2019-03-29T19:03:11.885Z,59.90
2019-03-29T19:05:54.386Z,60.00
2019-03-29T19:08:42.027Z,60.00
2019-03-29T19:11:18.791Z,60.00
2019-03-29T19:14:12.914Z,60.00
2019-03-29T19:16:59.127Z,60.10
2019-03-29T19:19:39.876Z,60.30
2019-03-29T19:22:22.398Z,60.30
2019-03-29T19:25:08.249Z,60.30
2019-03-29T19:27:49.193Z,60.30
2019-03-29T19:30:31.051Z,60.40
2019-03-29T19:33:11.504Z,60.50
2019-03-29T19:35:52.812Z,60.40
2019-03-29T19:38:33.421Z,60.50
2019-03-29T19:41:14.464Z,60.70
2019-03-29T19:44:06.562Z,60.80
2019-03-29T19:46:51.784Z,60.70
2019-03-29T19:49:37.175Z,60.00
2019-03-29T19:52:20.249Z,59.90
2019-03-29T19:55:05.381Z,60.10
2019-03-29T19:57:47.363Z,60.40
2019-03-29T20:00:49.551Z,60.50
2019-03-29T20:03:44.065Z,60.80
2019-03-29T20:06:25.855Z,61.10
2019-03-29T20:09:12.835Z,61.00
2019-03-29T20:11:59.758Z,61.10
2019-03-29T20:14:44.046Z,61.20
2019-03-29T20:17:27.665Z,61.00
2019-03-29T20:20:12.657Z,61.10
2019-03-29T20:22:54.596Z,60.60
2019-03-29T20:25:36.440Z,59.90
2019-03-29T20:28:21.022Z,59.60
2019-03-29T20:31:08.647Z,59.30
2019-03-29T20:33:49.989Z,59.20
2019-03-29T20:36:35.345Z,59.20
2019-03-29T20:39:15.120Z,58.90
2019-03-29T20:41:58.354Z,58.80
2019-03-29T20:44:37.521Z,58.70
2019-03-29T20:47:17.782Z,58.70
2019-03-29T20:49:57.242Z,58.60
2019-03-29T20:52:40.797Z,58.50
2019-03-29T20:55:24.309Z,58.40
2019-03-29T20:58:12.445Z,58.40
2019-03-29T21:00:54.239Z,58.60
2019-03-29T21:03:46.402Z,58.40
2019-03-29T21:06:28.163Z,58.30
2019-03-29T21:09:08.093Z,58.30
2019-03-29T21:11:51.984Z,58.30
2019-03-29T21:14:33.366Z,58.30
2019-03-29T21:17:16.530Z,58.40
2019-03-29T21:19:59.186Z,58.30
2019-03-29T21:22:44.440Z,58.20
2019-03-29T21:25:27.568Z,58.50
2019-03-29T21:28:07.152Z,58.50
2019-03-29T21:30:49.126Z,58.60
2019-03-29T21:33:32.174Z,58.70
2019-03-29T21:36:18.113Z,58.70
2019-03-29T21:38:57.227Z,58.60
2019-03-29T21:41:36.502Z,58.60
2019-03-29T21:44:20.090Z,58.50
2019-03-29T21:47:02.376Z,58.40
2019-03-29T21:49:47.619Z,58.40
2019-03-29T21:52:28.112Z,58.20
2019-03-29T21:55:08.404Z,58.20
2019-03-29T21:57:54.658Z,58.20
2019-03-29T22:00:43.827Z,58.20
2019-03-29T22:03:29.688Z,59.00
2019-03-29T22:06:07.202Z,58.40
2019-03-29T22:08:47.761Z,58.50
2019-03-29T22:11:32.275Z,58.60
2019-03-29T22:14:12.681Z,58.60
2019-03-29T22:16:54.332Z,58.80
2019-03-29T22:19:36.925Z,59.00
2019-03-29T22:22:22.185Z,59.10
2019-03-29T22:25:05.371Z,58.80
2019-03-29T22:27:52.579Z,59.00
2019-03-29T22:30:35.012Z,59.20
2019-03-29T22:33:22.938Z,59.20
2019-03-29T22:36:04.107Z,59.00
2019-03-29T22:38:44.050Z,58.80
2019-03-29T22:41:31.507Z,58.80
2019-03-29T22:44:13.599Z,58.50
2019-03-29T22:46:55.091Z,58.50
2019-03-29T22:49:34.015Z,58.50
2019-03-29T22:52:14.289Z,58.60
2019-03-29T22:54:58.336Z,58.50
2019-03-29T22:57:38.300Z,58.40
2019-03-29T23:00:23.511Z,58.40
2019-03-29T23:03:07.189Z,58.50
2019-03-29T23:05:53.688Z,58.20
2019-03-29T23:08:39.053Z,58.30
2019-03-29T23:11:25.188Z,58.50
2019-03-29T23:14:06.381Z,58.50
2019-03-29T23:16:45.419Z,58.60
2019-03-29T23:19:29.168Z,58.50
2019-03-29T23:22:12.401Z,58.50
2019-03-29T23:24:51.574Z,58.70
2019-03-29T23:27:31.524Z,58.40
2019-03-29T23:30:17.321Z,58.30
2019-03-29T23:33:01.200Z,58.50
2019-03-29T23:35:49.280Z,58.90
2019-03-29T23:38:32.622Z,59.10
2019-03-29T23:41:15.477Z,58.90
2019-03-29T23:47:03.386Z,58.50
2019-03-29T23:49:47.191Z,58.40
2019-03-29T23:52:42.632Z,58.90
2019-03-29T23:55:24.587Z,58.10
2019-03-29T23:58:11.223Z,57.60
